Terminal Aerodrome Forecast
Issued by NWS Duluth, MN

Home | Current Version | Previous Version | Text Only | Print | Product List | Glossary On
Versions: 1 2 3 4 5 6 7 8 9 10 11 12 13 14 15 16 17 18 19 20 21 22 23 24 25 26 27 28 29
999
FTUS43 KDLH 211132
TAFDLH
TAF
KDLH 211132Z 2112/2212 12003KT P6SM SKC
     FM211600 11010KT P6SM SKC
     FM211900 07016G25KT P6SM SCT250
     FM220000 08014KT P6SM SCT060
     FM220300 09012KT 4SM BR SCT025 BKN050
     FM220500 12008KT 2SM BR VCTS BKN020CB WS015/18040KT
     FM220900 13007KT 1 1/2SM BR VCTS BKN006CB WS015/20040KT=

USA.gov is the U.S. government's official web portal to all federal, state and local government web resources and services.